createdAt,value
2017-05-27T10:47:45.185Z,0.60
2017-05-27T10:48:46.048Z,0.83
2017-05-27T10:49:46.017Z,0.50
2017-05-27T10:50:45.952Z,0.52
2017-05-27T11:30:53.796Z,0.93
2017-05-27T11:31:53.936Z,1.10
2017-05-27T11:32:54.074Z,1.10
2017-05-27T11:33:54.136Z,1.05
2017-05-27T11:34:54.030Z,0.77
2017-05-27T11:35:55.169Z,1.85
2017-05-27T11:40:59.954Z,1.60
2017-05-27T11:42:00.147Z,1.42
2017-05-27T11:43:00.394Z,1.02
2017-05-27T11:44:00.482Z,0.98
2017-05-27T11:45:00.614Z,1.10
2017-05-27T11:46:00.748Z,0.82
2017-05-27T11:47:01.640Z,0.78
2017-05-27T11:48:01.819Z,1.60
2017-05-27T11:49:01.963Z,0.97
2017-05-27T11:50:02.163Z,1.12
2017-05-27T11:51:02.440Z,0.60
2017-05-27T12:05:05.018Z,1.12
2017-05-27T12:06:05.151Z,1.40
2017-05-27T12:27:35.848Z,1.00
2017-05-27T12:28:35.795Z,3.88
2017-05-27T12:29:35.804Z,1.07
2017-05-27T12:30:35.802Z,1.40
2017-05-27T12:31:35.730Z,1.22
2017-05-27T12:32:35.679Z,1.37
2017-05-27T12:33:35.647Z,1.62
2017-05-27T12:34:35.593Z,1.18
2017-05-27T12:35:35.543Z,1.40
2017-05-27T12:36:35.539Z,0.87
2017-05-27T12:45:36.567Z,1.00
2017-05-27T12:46:36.470Z,2.20
2017-05-27T12:47:36.439Z,0.97
2017-05-27T12:48:36.411Z,1.22
2017-05-27T12:49:36.308Z,1.57
2017-05-27T12:50:36.244Z,1.38
2017-05-27T12:51:36.183Z,5.17
2017-05-27T12:58:46.489Z,1.75
2017-05-27T12:59:46.458Z,1.22
2017-05-27T13:00:46.483Z,1.30
2017-05-27T13:01:46.428Z,1.67
2017-05-27T13:02:46.437Z,1.12
2017-05-27T13:03:46.625Z,2.05
2017-05-27T13:04:46.752Z,1.97
2017-05-27T13:05:47.021Z,1.58
2017-05-27T13:06:47.179Z,1.15
2017-05-27T13:13:57.575Z,2.50
2017-05-27T13:14:58.025Z,2.25
2017-05-27T13:15:58.303Z,1.48
2017-05-27T13:16:58.337Z,1.13
2017-05-27T13:17:58.413Z,1.42
2017-05-27T13:18:58.388Z,1.92
2017-05-27T13:19:58.344Z,2.40
2017-05-27T13:20:58.396Z,1.45
2017-05-27T13:21:58.478Z,3.15
2017-05-27T13:26:41.780Z,1.32
2017-05-27T13:27:41.784Z,2.88
2017-05-27T13:28:41.797Z,0.97
2017-05-27T13:29:41.931Z,1.27
2017-05-27T13:30:42.058Z,1.33
2017-05-27T13:31:42.178Z,0.98
2017-05-27T13:32:42.253Z,1.03
2017-05-27T13:33:42.551Z,2.03
2017-05-27T13:34:42.592Z,1.38
2017-05-27T13:35:42.582Z,1.80
2017-05-27T13:36:42.787Z,1.80
2017-05-27T13:37:46.784Z,3.17
2017-05-27T13:38:47.210Z,1.13
2017-05-27T13:39:47.526Z,1.77
2017-05-27T13:40:47.852Z,2.05
2017-05-27T13:41:49.098Z,2.93
2017-05-27T13:42:49.503Z,1.38
2017-05-27T13:43:49.813Z,0.95
2017-05-27T13:44:50.257Z,5.78
2017-05-27T13:45:50.684Z,1.83
2017-05-27T13:46:51.121Z,1.20
2017-05-27T13:47:51.442Z,2.08
2017-05-27T13:48:51.814Z,2.52
2017-05-27T13:49:52.223Z,2.00
2017-05-27T13:50:52.619Z,1.43
2017-05-27T13:51:53.062Z,2.10
2017-05-27T14:00:42.809Z,1.50
2017-05-27T14:01:43.194Z,1.32
2017-05-27T14:02:43.649Z,1.70
2017-05-27T14:03:44.126Z,1.35
2017-05-27T14:04:44.480Z,1.17
2017-05-27T14:05:44.671Z,4.87
2017-05-27T14:06:44.627Z,1.07
2017-05-27T14:09:36.720Z,1.35
2017-05-27T14:10:36.666Z,0.82
2017-05-27T14:11:36.589Z,1.42
2017-05-27T14:12:36.455Z,1.07
2017-05-27T14:13:36.407Z,0.97
2017-05-27T14:14:36.314Z,3.12
2017-05-27T14:15:36.208Z,1.02
2017-05-27T14:16:36.107Z,0.93
2017-05-27T14:17:36.070Z,1.70
2017-05-27T14:18:35.982Z,1.47
2017-05-27T14:19:35.901Z,1.57
2017-05-27T14:20:35.817Z,1.18
2017-05-27T14:21:35.754Z,1.22
2017-05-27T14:24:27.018Z,0.78
2017-05-27T14:25:26.987Z,1.30
2017-05-27T14:26:26.884Z,1.38
2017-05-27T14:27:26.770Z,1.98
2017-05-27T14:28:26.699Z,1.38
2017-05-27T14:29:26.631Z,1.27
2017-05-27T14:30:26.572Z,1.03
2017-05-27T14:31:26.462Z,1.42
2017-05-27T14:32:26.406Z,1.13
2017-05-27T14:33:26.309Z,1.10
2017-05-27T14:34:26.215Z,1.50
2017-05-27T14:35:26.069Z,1.67
2017-05-27T14:36:25.921Z,1.18
2017-05-27T14:37:25.780Z,1.43
2017-05-27T14:38:25.723Z,2.55
2017-05-27T14:39:25.593Z,1.53
2017-05-27T14:40:25.540Z,2.78
2017-05-27T14:41:25.404Z,1.28
2017-05-27T14:42:25.253Z,2.30
2017-05-27T14:43:25.131Z,1.70
2017-05-27T14:44:25.005Z,1.33
2017-05-27T14:45:24.981Z,0.90
2017-05-27T14:46:24.897Z,1.22
2017-05-27T14:47:24.768Z,2.50
2017-05-27T14:48:24.643Z,1.47
2017-05-27T14:49:24.562Z,1.63
2017-05-27T14:50:24.437Z,2.38
2017-05-27T14:51:24.365Z,1.30
2017-05-27T14:52:24.362Z,1.45
2017-05-27T14:53:24.246Z,1.40
2017-05-27T14:54:24.135Z,1.15
2017-05-27T14:55:23.982Z,1.93
2017-05-27T14:56:23.850Z,2.70
2017-05-27T14:57:23.772Z,1.90
2017-05-27T14:58:23.702Z,1.35
2017-05-27T14:59:23.626Z,2.70
2017-05-27T15:00:23.543Z,1.58
2017-05-27T15:01:23.418Z,1.28
2017-05-27T15:02:23.356Z,2.47
2017-05-27T15:03:23.315Z,1.57
2017-05-27T15:04:23.293Z,1.28
2017-05-27T15:05:23.205Z,1.65
2017-05-27T15:06:23.090Z,2.85
2017-05-27T15:07:22.996Z,2.23
2017-05-27T15:08:22.964Z,1.65
2017-05-27T15:09:23.126Z,1.15
2017-05-27T15:10:23.062Z,1.55
2017-05-27T15:11:23.006Z,2.63
2017-05-27T15:12:22.944Z,7.80
2017-05-27T15:13:22.853Z,1.80
2017-05-27T15:14:22.802Z,1.48
2017-05-27T15:15:22.739Z,4.45
2017-05-27T15:16:22.710Z,3.38
2017-05-27T15:17:22.657Z,1.58
2017-05-27T15:18:22.558Z,4.17
2017-05-27T15:19:22.507Z,2.25
2017-05-27T15:20:22.398Z,2.62
2017-05-27T15:21:22.317Z,1.17
2017-05-27T15:22:22.287Z,1.03
2017-05-27T15:23:22.245Z,1.43
2017-05-27T15:24:22.197Z,2.35
2017-05-27T15:25:22.132Z,1.40
2017-05-27T15:26:22.089Z,1.22
2017-05-27T15:27:21.948Z,1.98
2017-05-27T15:28:21.872Z,2.05
2017-05-27T15:29:21.841Z,1.28
2017-05-27T15:30:21.778Z,4.87
2017-05-27T15:31:21.792Z,2.58
2017-05-27T15:32:21.659Z,2.57
2017-05-27T15:33:21.564Z,13.15
2017-05-27T15:34:21.514Z,2.67
2017-05-27T15:35:21.482Z,1.98
2017-05-27T15:36:21.387Z,2.25
2017-05-27T15:37:21.316Z,1.27
2017-05-27T15:38:21.358Z,3.22
2017-05-27T15:39:21.235Z,1.58
2017-05-27T15:40:21.102Z,1.47
2017-05-27T15:41:20.978Z,1.18
2017-05-27T15:42:20.941Z,2.32
2017-05-27T15:43:20.848Z,1.42
2017-05-27T15:44:20.785Z,3.13
2017-05-27T15:45:20.667Z,2.17
2017-05-27T15:46:20.576Z,1.90
2017-05-27T15:47:20.495Z,2.37
2017-05-27T15:48:20.370Z,2.05
2017-05-27T15:49:20.329Z,3.05
2017-05-27T15:50:20.224Z,1.48
2017-05-27T15:51:20.092Z,2.15
2017-05-27T15:52:20.007Z,1.67
2017-05-27T15:53:19.923Z,4.15
2017-05-27T15:54:19.786Z,2.45
2017-05-27T15:55:19.679Z,2.40
2017-05-27T15:56:19.696Z,2.38
2017-05-27T15:57:19.713Z,1.68
2017-05-27T15:58:19.645Z,4.10
2017-05-27T15:59:19.587Z,1.77
2017-05-27T16:00:19.527Z,1.60
2017-05-27T16:01:19.412Z,2.10
2017-05-27T16:02:19.321Z,4.82
2017-05-27T16:03:19.282Z,1.40
2017-05-27T16:04:19.214Z,1.42
2017-05-27T16:05:19.237Z,2.50
2017-05-27T16:06:19.147Z,3.93
2017-05-27T16:07:19.021Z,1.33
2017-05-27T16:08:40.243Z,1.70
2017-05-27T16:09:40.127Z,3.73
2017-05-27T16:10:40.093Z,2.48
2017-05-27T16:11:39.989Z,1.93
2017-05-27T16:12:39.947Z,1.45
2017-05-27T16:13:39.895Z,7.37
2017-05-27T16:14:39.963Z,3.67
2017-05-27T16:15:40.027Z,3.50
2017-05-27T16:16:39.883Z,2.98
2017-05-27T16:17:39.802Z,1.92
2017-05-27T16:18:39.717Z,2.17
2017-05-27T16:19:39.613Z,2.95
2017-05-27T16:20:39.522Z,2.20
2017-05-27T16:21:39.460Z,2.02
2017-05-27T16:22:39.413Z,1.75
2017-05-27T16:23:39.344Z,3.82
2017-05-27T16:24:39.300Z,1.52
2017-05-27T16:25:39.201Z,3.00
2017-05-27T16:26:39.111Z,4.92
2017-05-27T16:27:39.048Z,2.47
2017-05-27T16:28:38.994Z,4.85
2017-05-27T16:29:38.906Z,1.37
2017-05-27T16:30:38.831Z,2.52
2017-05-27T16:31:38.734Z,1.53
2017-05-27T16:32:38.662Z,1.15
2017-05-27T16:33:38.710Z,1.28
2017-05-27T16:34:38.649Z,2.13
2017-05-27T16:35:38.604Z,2.73
2017-05-27T16:36:38.542Z,3.78
2017-05-27T16:37:38.454Z,2.25
2017-05-27T16:38:38.406Z,2.65
2017-05-27T16:39:38.275Z,1.85
2017-05-27T16:40:38.206Z,2.10
2017-05-27T16:41:38.077Z,1.58
2017-05-27T16:42:38.033Z,3.05
2017-05-27T16:43:38.025Z,2.68
2017-05-27T16:44:37.904Z,2.02
2017-05-27T16:45:37.809Z,1.62
2017-05-27T16:46:37.770Z,1.57
2017-05-27T16:47:37.812Z,1.87
2017-05-27T16:48:37.725Z,2.95
2017-05-27T16:49:37.633Z,3.53
2017-05-27T16:50:37.509Z,2.77
2017-05-27T16:51:37.408Z,1.90
2017-05-27T16:52:37.278Z,1.78
2017-05-27T16:53:37.277Z,2.00
2017-05-27T16:54:37.236Z,1.47
2017-05-27T16:55:37.202Z,3.18
2017-05-27T16:56:37.189Z,2.22
2017-05-27T16:57:37.137Z,2.05
2017-05-27T16:58:37.060Z,2.02
2017-05-27T16:59:36.941Z,1.45
2017-05-27T17:00:36.818Z,1.52
2017-05-27T17:01:36.703Z,2.97
2017-05-27T17:02:36.631Z,1.45
2017-05-27T17:03:36.523Z,1.72
2017-05-27T17:04:36.461Z,1.42
2017-05-27T17:05:36.387Z,2.62
2017-05-27T17:06:36.347Z,2.25
2017-05-27T17:07:36.270Z,1.52
2017-05-27T17:08:39.383Z,3.27
2017-05-27T17:09:39.340Z,1.40
2017-05-27T17:10:39.330Z,1.83
2017-05-27T17:11:39.291Z,3.20
2017-05-27T17:12:39.276Z,2.28
2017-05-27T17:13:39.208Z,1.60
2017-05-27T17:14:39.151Z,3.50
2017-05-27T17:15:39.120Z,2.10
2017-05-27T17:16:39.085Z,2.17
2017-05-27T17:17:39.038Z,3.02
2017-05-27T17:18:39.060Z,2.10
2017-05-27T17:19:39.221Z,3.98
2017-05-27T17:20:39.162Z,2.35
2017-05-27T17:21:39.141Z,1.70
2017-05-27T17:22:39.080Z,1.95
2017-05-27T17:24:08.762Z,1.83
2017-05-27T17:25:08.717Z,3.20
2017-05-27T17:26:08.721Z,1.58
2017-05-27T17:27:08.681Z,2.45
2017-05-27T17:28:08.622Z,1.30
2017-05-27T17:29:08.542Z,1.97
2017-05-27T17:30:08.429Z,2.12
2017-05-27T17:31:08.314Z,1.83
2017-05-27T17:32:08.288Z,4.52
2017-05-27T17:33:08.252Z,1.55
2017-05-27T17:34:08.133Z,3.17
2017-05-27T17:35:08.036Z,1.83
2017-05-27T17:36:07.946Z,4.08
2017-05-27T17:37:07.836Z,1.73
2017-05-27T17:38:07.689Z,1.77
2017-05-27T17:39:42.308Z,4.23
2017-05-27T17:40:42.225Z,2.08
2017-05-27T17:41:42.206Z,2.37
2017-05-27T17:42:42.129Z,1.58
2017-05-27T17:43:42.067Z,1.97
2017-05-27T17:44:42.048Z,4.68
2017-05-27T17:45:42.075Z,2.00
2017-05-27T17:46:42.028Z,3.62
2017-05-27T17:47:41.995Z,2.40
2017-05-27T17:48:41.968Z,2.22
2017-05-27T17:49:41.869Z,2.05
2017-05-27T17:50:41.793Z,3.18
2017-05-27T17:51:41.722Z,3.83
2017-05-27T17:52:41.702Z,2.20
2017-05-27T17:55:48.121Z,4.32
2017-05-27T17:56:48.088Z,1.80
2017-05-27T17:57:48.097Z,1.73
2017-05-27T17:58:48.046Z,1.90
2017-05-27T17:59:48.013Z,1.65
2017-05-27T18:00:47.980Z,2.17
2017-05-27T18:01:47.948Z,3.10
2017-05-27T18:02:47.940Z,4.13
2017-05-27T18:03:47.942Z,3.27
2017-05-27T18:04:48.033Z,2.57
2017-05-27T18:05:48.036Z,2.12
2017-05-27T18:06:48.045Z,1.85
2017-05-27T18:07:48.002Z,2.50
2017-05-27T18:11:18.629Z,3.12
2017-05-27T18:12:18.543Z,1.80
2017-05-27T18:13:18.459Z,2.02
2017-05-27T18:14:18.465Z,5.18
2017-05-27T18:15:18.431Z,2.67
2017-05-27T18:16:18.374Z,4.53
2017-05-27T18:17:18.348Z,2.20
2017-05-27T18:18:18.381Z,2.27
2017-05-27T18:19:18.321Z,3.58
2017-05-27T18:20:18.317Z,1.75
2017-05-27T18:21:18.273Z,3.00
2017-05-27T18:22:18.231Z,5.07
2017-05-27T18:23:18.133Z,4.28
2017-05-27T18:24:18.095Z,2.55
2017-05-27T18:25:18.086Z,4.77
2017-05-27T18:26:18.104Z,2.85
2017-05-27T18:27:18.002Z,2.30
2017-05-27T18:28:18.073Z,3.13
2017-05-27T18:29:18.097Z,3.60
2017-05-27T18:30:18.045Z,4.95
2017-05-27T18:31:17.972Z,4.42
2017-05-27T18:32:17.867Z,7.40
2017-05-27T18:33:17.837Z,2.60
2017-05-27T18:34:17.738Z,3.18
2017-05-27T18:35:17.666Z,4.13
2017-05-27T18:36:17.621Z,3.40
2017-05-27T18:37:17.548Z,3.22
2017-05-27T18:38:17.610Z,3.27
2017-05-27T18:43:01.052Z,3.07
2017-05-27T18:44:00.984Z,5.78
2017-05-27T18:45:00.884Z,10.77
2017-05-27T18:46:00.811Z,14.83
2017-05-27T18:47:00.800Z,24.75
2017-05-27T18:48:00.736Z,25.28
2017-05-27T18:49:00.703Z,27.83
2017-05-27T18:50:00.606Z,21.20
2017-05-27T18:51:00.554Z,16.75
2017-05-27T18:52:00.530Z,14.90
2017-05-27T18:53:00.471Z,10.48
2017-05-27T18:55:13.761Z,7.23
2017-05-27T18:56:13.768Z,3.20
2017-05-27T18:57:13.783Z,3.00
2017-05-27T18:58:13.700Z,3.58
2017-05-27T18:59:13.679Z,4.17
2017-05-27T19:00:13.710Z,4.37
2017-05-27T19:01:13.672Z,3.92
2017-05-27T19:02:13.617Z,5.73
2017-05-27T19:03:13.528Z,4.08
2017-05-27T19:04:13.458Z,3.35
2017-05-27T19:05:13.408Z,4.72
2017-05-27T19:06:13.283Z,3.47
2017-05-27T19:07:13.156Z,3.77
2017-05-27T19:08:13.090Z,3.73
2017-05-27T19:11:42.386Z,3.42
2017-05-27T19:12:42.287Z,3.90
2017-05-27T19:13:42.199Z,12.82
2017-05-27T19:14:42.142Z,6.57
2017-05-27T19:15:42.145Z,7.27
2017-05-27T19:16:42.144Z,5.95
2017-05-27T19:17:42.098Z,4.10
2017-05-27T19:18:42.017Z,4.92
2017-05-27T19:19:41.953Z,5.62
2017-05-27T19:20:41.876Z,4.68
2017-05-27T19:21:41.741Z,4.65
2017-05-27T19:22:41.593Z,3.03
2017-05-27T19:23:41.548Z,4.90
2017-05-27T19:28:25.387Z,4.10
2017-05-27T19:29:25.265Z,4.48
2017-05-27T19:30:25.306Z,7.52
2017-05-27T19:31:25.282Z,5.23
2017-05-27T19:32:25.219Z,6.73
2017-05-27T19:33:25.253Z,4.97
2017-05-27T19:34:25.204Z,4.30
2017-05-27T19:35:25.160Z,6.10
2017-05-27T19:36:25.077Z,4.50
2017-05-27T19:37:24.979Z,4.88
2017-05-27T19:38:24.980Z,5.73
2017-05-27T19:39:24.901Z,3.50
2017-05-27T19:40:24.818Z,3.73
2017-05-27T19:41:24.724Z,4.00
2017-05-27T19:42:24.688Z,4.32
2017-05-27T19:43:24.613Z,5.88
2017-05-27T19:44:24.521Z,8.62
2017-05-27T19:45:24.456Z,3.65
2017-05-27T19:46:24.443Z,3.08
2017-05-27T19:47:24.351Z,4.52
2017-05-27T19:48:24.274Z,3.12
2017-05-27T19:49:24.165Z,2.48
2017-05-27T19:50:24.073Z,2.30
2017-05-27T19:51:23.971Z,3.65
2017-05-27T19:52:23.855Z,2.67
2017-05-27T19:53:23.726Z,4.32
2017-05-27T19:54:23.606Z,2.77
2017-05-27T19:55:23.539Z,3.77
2017-05-27T19:56:23.437Z,3.57
2017-05-27T19:57:23.382Z,2.85
2017-05-27T19:58:23.337Z,4.78
2017-05-27T19:59:23.368Z,3.50
2017-05-27T20:00:23.321Z,4.60
2017-05-27T20:01:23.240Z,4.32
2017-05-27T20:02:23.431Z,5.77
2017-05-27T20:03:23.443Z,11.42
2017-05-27T20:04:23.438Z,11.20
2017-05-27T20:05:23.438Z,10.25
2017-05-27T20:06:23.335Z,8.47
2017-05-27T20:07:23.250Z,9.27
2017-05-27T20:08:23.160Z,7.98
2017-05-27T20:09:23.086Z,5.95
2017-05-27T20:10:23.033Z,7.20
2017-05-27T20:11:23.000Z,7.98
2017-05-27T20:12:22.912Z,9.02
2017-05-27T20:13:22.852Z,10.12
2017-05-27T20:14:22.716Z,7.12
2017-05-27T20:15:22.635Z,6.50
2017-05-27T20:16:22.587Z,4.87
2017-05-27T20:17:22.478Z,6.35
2017-05-27T20:18:22.569Z,6.92
2017-05-27T20:19:22.555Z,3.87
2017-05-27T20:20:22.476Z,4.70
2017-05-27T20:21:22.365Z,7.90
2017-05-27T20:22:22.287Z,3.07
2017-05-27T20:23:22.215Z,5.42
2017-05-27T20:24:38.726Z,4.33
2017-05-27T20:25:38.661Z,3.88
2017-05-27T20:26:38.591Z,3.75
2017-05-27T20:27:38.477Z,3.35
2017-05-27T20:28:38.352Z,4.70
2017-05-27T20:29:38.285Z,5.53
2017-05-27T20:30:38.200Z,6.37
2017-05-27T20:31:38.113Z,3.17
2017-05-27T20:32:38.031Z,4.18
2017-05-27T20:33:38.091Z,5.63
2017-05-27T20:34:38.156Z,4.10
2017-05-27T20:35:38.111Z,4.50
2017-05-27T20:36:38.014Z,5.30
2017-05-27T20:37:37.924Z,4.42
2017-05-27T20:38:37.814Z,3.75
2017-05-27T20:51:28.411Z,3.45
2017-05-27T20:52:28.361Z,4.62
2017-05-27T20:53:28.274Z,8.48
2017-05-27T20:54:44.630Z,3.17
2017-05-27T20:55:44.596Z,4.07
2017-05-27T20:56:44.518Z,3.72
2017-05-27T20:57:44.518Z,3.42
2017-05-27T20:58:44.433Z,4.30
2017-05-27T20:59:44.387Z,3.57
2017-05-27T21:00:44.376Z,3.43
2017-05-27T21:01:44.301Z,5.88
2017-05-27T21:02:44.176Z,4.50
2017-05-27T21:03:44.108Z,5.48
2017-05-27T21:04:43.989Z,4.25
2017-05-27T21:05:43.944Z,4.30
2017-05-27T21:06:43.845Z,5.85
2017-05-27T21:07:43.731Z,5.12
2017-05-27T21:08:43.614Z,3.93
2017-05-27T21:11:35.609Z,4.33
2017-05-27T21:12:35.668Z,3.78
2017-05-27T21:13:35.617Z,3.82
2017-05-27T21:14:35.558Z,4.13
2017-05-27T21:15:35.467Z,3.57
2017-05-27T21:16:35.413Z,3.97
2017-05-27T21:17:35.408Z,3.77
2017-05-27T21:18:35.304Z,3.68
2017-05-27T21:19:35.188Z,3.82
2017-05-27T21:20:35.059Z,3.47
2017-05-27T21:21:34.969Z,7.40
2017-05-27T21:22:34.826Z,4.48
2017-05-27T21:23:34.691Z,3.80
2017-05-27T21:24:34.566Z,4.28
2017-05-27T21:25:34.426Z,3.63
2017-05-27T21:26:34.416Z,3.27
2017-05-27T21:27:34.387Z,3.93
2017-05-27T21:28:34.317Z,5.02
2017-05-27T21:29:34.240Z,7.32
2017-05-27T21:30:34.130Z,4.15
2017-05-27T21:31:34.017Z,4.13
2017-05-27T21:32:33.884Z,3.85
2017-05-27T21:33:33.785Z,4.30
2017-05-27T21:34:33.641Z,3.75
2017-05-27T21:35:33.505Z,3.43
2017-05-27T21:36:33.401Z,3.22
2017-05-27T21:37:33.342Z,3.60
2017-05-27T21:38:33.251Z,3.82
2017-05-27T21:40:45.962Z,4.13
2017-05-27T21:41:45.851Z,4.92
2017-05-27T21:42:45.765Z,4.15
2017-05-27T21:43:45.641Z,3.65
2017-05-27T21:44:45.495Z,3.52
2017-05-27T21:45:45.335Z,5.13
2017-05-27T21:46:45.181Z,3.75
2017-05-27T21:47:45.026Z,3.67
2017-05-27T21:48:44.924Z,4.30
2017-05-27T21:49:44.861Z,4.93
2017-05-27T21:50:44.817Z,5.28
2017-05-27T21:51:44.712Z,5.20
2017-05-27T21:52:44.565Z,4.90
2017-05-27T21:53:44.429Z,4.95
2017-05-27T21:54:44.301Z,4.08
2017-05-27T21:55:44.184Z,4.90
2017-05-27T21:56:44.107Z,3.70
2017-05-27T21:57:44.118Z,4.65
2017-05-27T21:58:44.035Z,3.60
2017-05-27T21:59:43.936Z,3.83
2017-05-27T22:00:43.842Z,4.50
2017-05-27T22:01:43.703Z,4.90
2017-05-27T22:02:43.582Z,3.62
2017-05-27T22:03:43.451Z,4.03
2017-05-27T22:04:43.416Z,3.90
2017-05-27T22:05:43.328Z,4.40
2017-05-27T22:06:43.218Z,5.25
2017-05-27T22:07:43.053Z,4.10
2017-05-27T22:08:42.941Z,3.55
2017-05-27T22:09:42.809Z,5.45
2017-05-27T22:10:42.730Z,4.08
2017-05-27T22:11:42.631Z,3.68
2017-05-27T22:12:42.533Z,4.85
2017-05-27T22:13:42.456Z,3.90
2017-05-27T22:14:42.297Z,4.20
2017-05-27T22:15:42.181Z,3.57
2017-05-27T22:16:42.072Z,4.17
2017-05-27T22:17:41.907Z,3.93
2017-05-27T22:18:41.800Z,5.20
2017-05-27T22:19:41.737Z,4.50
2017-05-27T22:20:41.591Z,4.37
2017-05-27T22:21:41.488Z,3.58
2017-05-27T22:22:41.395Z,4.77
2017-05-27T22:23:41.286Z,5.13
2017-05-27T22:26:08.356Z,6.47
2017-05-27T22:27:08.181Z,3.52
2017-05-27T22:28:08.188Z,3.42
2017-05-27T22:29:08.080Z,4.18
2017-05-27T22:30:07.948Z,3.70
2017-05-27T22:31:07.802Z,3.83
2017-05-27T22:32:07.637Z,3.83
2017-05-27T22:33:07.515Z,3.50
2017-05-27T22:34:07.415Z,3.88
2017-05-27T22:35:07.300Z,3.48
2017-05-27T22:36:07.193Z,4.12
2017-05-27T22:37:07.071Z,4.22
2017-05-27T22:38:06.906Z,4.12
2017-05-27T22:39:06.746Z,4.90
2017-05-27T22:40:06.593Z,4.08
2017-05-27T22:41:06.430Z,3.32
2017-05-27T22:42:06.364Z,4.75
2017-05-27T22:43:06.189Z,3.25
2017-05-27T22:44:06.896Z,3.25
2017-05-27T22:45:06.736Z,3.77
2017-05-27T22:46:06.588Z,4.67
2017-05-27T22:47:06.487Z,4.07
2017-05-27T22:48:06.399Z,5.10
2017-05-27T22:49:06.292Z,4.00
2017-05-27T22:50:06.120Z,3.07
2017-05-27T22:51:05.977Z,3.90
2017-05-27T22:52:05.825Z,3.93
2017-05-27T22:53:05.706Z,4.02
2017-05-27T22:54:05.598Z,4.17
2017-05-27T22:56:57.787Z,4.17
2017-05-27T22:57:57.691Z,4.00
2017-05-27T22:58:57.620Z,3.52
2017-05-27T22:59:57.470Z,3.67
2017-05-27T23:00:57.357Z,4.53
2017-05-27T23:01:57.233Z,3.78
2017-05-27T23:02:57.097Z,3.57
2017-05-27T23:03:56.988Z,3.32
2017-05-27T23:04:56.891Z,4.05
2017-05-27T23:05:56.753Z,4.40
2017-05-27T23:06:56.623Z,4.70
2017-05-27T23:07:56.534Z,4.37
2017-05-27T23:08:56.434Z,3.85
2017-05-27T23:11:53.336Z,5.02
2017-05-27T23:12:53.215Z,3.72
2017-05-27T23:13:53.101Z,3.88
2017-05-27T23:14:52.990Z,4.43
2017-05-27T23:15:52.829Z,5.85
2017-05-27T23:16:52.768Z,4.55
2017-05-27T23:17:52.667Z,4.72
2017-05-27T23:18:52.522Z,4.48
2017-05-27T23:19:52.415Z,3.95
2017-05-27T23:20:52.323Z,4.95
2017-05-27T23:21:52.327Z,7.68
2017-05-27T23:22:52.160Z,4.42
2017-05-27T23:23:52.013Z,4.23
2017-05-27T23:24:51.902Z,4.43
2017-05-27T23:25:51.817Z,4.45
2017-05-27T23:26:51.696Z,4.50
2017-05-27T23:27:51.616Z,4.88
2017-05-27T23:28:51.495Z,6.40
2017-05-27T23:29:51.436Z,4.58
2017-05-27T23:30:51.326Z,4.68
2017-05-27T23:31:51.181Z,5.03
2017-05-27T23:32:51.096Z,4.72
2017-05-27T23:33:50.986Z,6.93
2017-05-27T23:34:50.893Z,4.55
2017-05-27T23:35:50.753Z,4.13
2017-05-27T23:36:50.644Z,3.95
2017-05-27T23:37:50.474Z,4.38
2017-05-27T23:38:50.313Z,4.92
2017-05-27T23:39:50.173Z,4.27
2017-05-27T23:40:50.126Z,3.98
2017-05-27T23:41:50.031Z,5.33
2017-05-27T23:42:49.895Z,3.88
2017-05-27T23:43:49.739Z,3.88
2017-05-27T23:44:49.569Z,5.25
2017-05-27T23:45:49.456Z,4.83
2017-05-27T23:46:49.351Z,4.70
2017-05-27T23:47:49.225Z,5.40
2017-05-27T23:48:49.131Z,4.77
2017-05-27T23:49:49.099Z,4.90
2017-05-27T23:50:48.987Z,3.72
2017-05-27T23:51:48.863Z,3.70
2017-05-27T23:52:48.696Z,4.17
2017-05-27T23:53:48.608Z,4.85
2017-05-27T23:54:48.481Z,4.75
